sensor_id;sensor_type;location;lat;lon;timestamp;P1;durP1;ratioP1;P2;durP2;ratioP2
74941;SDS011;63506;49.346;8.798;2023-03-13T00:01:11;10.20;;;7.10;;
74941;SDS011;63506;49.346;8.798;2023-03-13T00:03:39;12.10;;;7.43;;
74941;SDS011;63506;49.346;8.798;2023-03-13T00:06:10;14.32;;;7.18;;
74941;SDS011;63506;49.346;8.798;2023-03-13T00:08:41;13.18;;;6.60;;
74941;SDS011;63506;49.346;8.798;2023-03-13T00:11:12;11.35;;;7.63;;
74941;SDS011;63506;49.346;8.798;2023-03-13T00:13:40;12.93;;;7.20;;
74941;SDS011;63506;49.346;8.798;2023-03-13T00:16:15;11.02;;;8.45;;
74941;SDS011;63506;49.346;8.798;2023-03-13T00:18:46;13.10;;;7.32;;
74941;SDS011;63506;49.346;8.798;2023-03-13T00:21:14;15.57;;;8.23;;
74941;SDS011;63506;49.346;8.798;2023-03-13T00:23:44;14.48;;;8.75;;
74941;SDS011;63506;49.346;8.798;2023-03-13T00:26:15;11.02;;;7.45;;
74941;SDS011;63506;49.346;8.798;2023-03-13T00:28:43;11.27;;;6.35;;
74941;SDS011;63506;49.346;8.798;2023-03-13T00:31:12;13.77;;;7.10;;
74941;SDS011;63506;49.346;8.798;2023-03-13T00:33:41;13.07;;;6.80;;
74941;SDS011;63506;49.346;8.798;2023-03-13T00:36:10;15.32;;;7.43;;
74941;SDS011;63506;49.346;8.798;2023-03-13T00:38:39;11.57;;;7.85;;
74941;SDS011;63506;49.346;8.798;2023-03-13T00:41:08;10.00;;;7.40;;
74941;SDS011;63506;49.346;8.798;2023-03-13T00:43:40;14.20;;;8.35;;
74941;SDS011;63506;49.346;8.798;2023-03-13T00:46:13;13.13;;;7.32;;
74941;SDS011;63506;49.346;8.798;2023-03-13T00:48:44;17.15;;;7.97;;
74941;SDS011;63506;49.346;8.798;2023-03-13T00:51:14;13.15;;;8.05;;
74941;SDS011;63506;49.346;8.798;2023-03-13T00:56:21;12.60;;;7.82;;
74941;SDS011;63506;49.346;8.798;2023-03-13T00:58:49;14.80;;;8.60;;
74941;SDS011;63506;49.346;8.798;2023-03-13T01:01:20;11.48;;;7.43;;
74941;SDS011;63506;49.346;8.798;2023-03-13T01:03:48;12.90;;;8.27;;
74941;SDS011;63506;49.346;8.798;2023-03-13T01:06:22;10.07;;;8.73;;
74941;SDS011;63506;49.346;8.798;2023-03-13T01:08:51;11.50;;;8.05;;
74941;SDS011;63506;49.346;8.798;2023-03-13T01:11:19;12.48;;;7.70;;
74941;SDS011;63506;49.346;8.798;2023-03-13T01:13:52;17.00;;;7.70;;
74941;SDS011;63506;49.346;8.798;2023-03-13T01:16:20;12.90;;;6.65;;
74941;SDS011;63506;49.346;8.798;2023-03-13T01:18:48;10.15;;;7.50;;
74941;SDS011;63506;49.346;8.798;2023-03-13T01:21:17;11.45;;;8.02;;
74941;SDS011;63506;49.346;8.798;2023-03-13T01:23:48;13.30;;;6.60;;
74941;SDS011;63506;49.346;8.798;2023-03-13T01:26:18;10.85;;;7.53;;
74941;SDS011;63506;49.346;8.798;2023-03-13T01:28:49;10.88;;;7.65;;
74941;SDS011;63506;49.346;8.798;2023-03-13T01:31:20;16.23;;;9.98;;
74941;SDS011;63506;49.346;8.798;2023-03-13T01:33:49;12.50;;;8.40;;
74941;SDS011;63506;49.346;8.798;2023-03-13T01:36:19;11.48;;;7.72;;
74941;SDS011;63506;49.346;8.798;2023-03-13T01:38:47;9.98;;;6.88;;
74941;SDS011;63506;49.346;8.798;2023-03-13T01:41:14;10.43;;;6.63;;
74941;SDS011;63506;49.346;8.798;2023-03-13T01:43:43;11.43;;;7.65;;
74941;SDS011;63506;49.346;8.798;2023-03-13T01:46:15;10.35;;;6.78;;
74941;SDS011;63506;49.346;8.798;2023-03-13T01:48:53;9.25;;;6.68;;
74941;SDS011;63506;49.346;8.798;2023-03-13T01:51:26;11.65;;;6.53;;
74941;SDS011;63506;49.346;8.798;2023-03-13T01:53:58;12.85;;;8.18;;
74941;SDS011;63506;49.346;8.798;2023-03-13T01:56:29;10.65;;;8.48;;
74941;SDS011;63506;49.346;8.798;2023-03-13T01:59:00;10.25;;;7.10;;
74941;SDS011;63506;49.346;8.798;2023-03-13T02:01:32;14.20;;;7.63;;
74941;SDS011;63506;49.346;8.798;2023-03-13T02:04:04;11.40;;;7.05;;
74941;SDS011;63506;49.346;8.798;2023-03-13T02:06:35;10.93;;;7.95;;
74941;SDS011;63506;49.346;8.798;2023-03-13T02:09:13;17.80;;;7.55;;
74941;SDS011;63506;49.346;8.798;2023-03-13T02:11:43;13.18;;;7.32;;
74941;SDS011;63506;49.346;8.798;2023-03-13T02:14:14;14.45;;;6.53;;
74941;SDS011;63506;49.346;8.798;2023-03-13T02:16:43;11.27;;;7.30;;
74941;SDS011;63506;49.346;8.798;2023-03-13T02:19:16;8.38;;;7.53;;
74941;SDS011;63506;49.346;8.798;2023-03-13T02:21:48;10.80;;;7.28;;
74941;SDS011;63506;49.346;8.798;2023-03-13T02:24:23;14.10;;;6.63;;
74941;SDS011;63506;49.346;8.798;2023-03-13T02:26:56;11.27;;;7.45;;
74941;SDS011;63506;49.346;8.798;2023-03-13T02:29:24;17.75;;;9.32;;
74941;SDS011;63506;49.346;8.798;2023-03-13T02:31:51;8.90;;;6.15;;
74941;SDS011;63506;49.346;8.798;2023-03-13T02:34:20;12.05;;;7.28;;
74941;SDS011;63506;49.346;8.798;2023-03-13T02:36:48;11.98;;;9.57;;
74941;SDS011;63506;49.346;8.798;2023-03-13T02:39:19;11.85;;;8.75;;
74941;SDS011;63506;49.346;8.798;2023-03-13T02:41:58;20.00;;;9.50;;
74941;SDS011;63506;49.346;8.798;2023-03-13T02:44:30;13.45;;;7.90;;
74941;SDS011;63506;49.346;8.798;2023-03-13T02:47:05;13.60;;;8.20;;
74941;SDS011;63506;49.346;8.798;2023-03-13T02:49:34;9.85;;;7.07;;
74941;SDS011;63506;49.346;8.798;2023-03-13T02:52:05;16.70;;;7.10;;
74941;SDS011;63506;49.346;8.798;2023-03-13T02:54:36;18.30;;;9.13;;
74941;SDS011;63506;49.346;8.798;2023-03-13T02:57:08;15.60;;;8.65;;
74941;SDS011;63506;49.346;8.798;2023-03-13T02:59:35;10.88;;;7.25;;
74941;SDS011;63506;49.346;8.798;2023-03-13T03:02:02;8.55;;;6.50;;
74941;SDS011;63506;49.346;8.798;2023-03-13T03:04:30;5.00;;;2.92;;
74941;SDS011;63506;49.346;8.798;2023-03-13T03:06:57;4.97;;;2.22;;
74941;SDS011;63506;49.346;8.798;2023-03-13T03:09:24;3.47;;;2.17;;
74941;SDS011;63506;49.346;8.798;2023-03-13T03:11:58;2.92;;;2.05;;
74941;SDS011;63506;49.346;8.798;2023-03-13T03:14:29;3.88;;;1.73;;
74941;SDS011;63506;49.346;8.798;2023-03-13T03:16:58;8.15;;;1.95;;
74941;SDS011;63506;49.346;8.798;2023-03-13T03:19:25;4.50;;;1.63;;
74941;SDS011;63506;49.346;8.798;2023-03-13T03:22:02;5.75;;;1.77;;
74941;SDS011;63506;49.346;8.798;2023-03-13T03:24:32;4.60;;;1.42;;
74941;SDS011;63506;49.346;8.798;2023-03-13T03:26:59;8.93;;;3.08;;
74941;SDS011;63506;49.346;8.798;2023-03-13T03:29:35;5.45;;;1.65;;
74941;SDS011;63506;49.346;8.798;2023-03-13T03:32:05;6.90;;;1.92;;
74941;SDS011;63506;49.346;8.798;2023-03-13T03:34:33;5.63;;;1.85;;
74941;SDS011;63506;49.346;8.798;2023-03-13T03:37:03;1.55;;;1.30;;
74941;SDS011;63506;49.346;8.798;2023-03-13T03:39:30;2.50;;;1.25;;
74941;SDS011;63506;49.346;8.798;2023-03-13T03:41:58;1.98;;;1.30;;
74941;SDS011;63506;49.346;8.798;2023-03-13T03:44:29;2.88;;;1.20;;
74941;SDS011;63506;49.346;8.798;2023-03-13T03:46:59;3.00;;;1.25;;
74941;SDS011;63506;49.346;8.798;2023-03-13T03:49:31;6.70;;;1.20;;
74941;SDS011;63506;49.346;8.798;2023-03-13T03:52:01;4.90;;;1.42;;
74941;SDS011;63506;49.346;8.798;2023-03-13T03:54:33;3.72;;;1.50;;
74941;SDS011;63506;49.346;8.798;2023-03-13T03:57:27;4.70;;;2.03;;
74941;SDS011;63506;49.346;8.798;2023-03-13T03:59:57;2.50;;;2.13;;
74941;SDS011;63506;49.346;8.798;2023-03-13T04:02:29;5.50;;;1.05;;
74941;SDS011;63506;49.346;8.798;2023-03-13T04:04:57;4.40;;;1.48;;
74941;SDS011;63506;49.346;8.798;2023-03-13T04:07:30;3.55;;;1.85;;
74941;SDS011;63506;49.346;8.798;2023-03-13T04:09:58;3.63;;;1.27;;
74941;SDS011;63506;49.346;8.798;2023-03-13T04:12:35;6.53;;;1.30;;
74941;SDS011;63506;49.346;8.798;2023-03-13T04:15:05;4.90;;;1.25;;
74941;SDS011;63506;49.346;8.798;2023-03-13T04:17:34;2.72;;;1.08;;
74941;SDS011;63506;49.346;8.798;2023-03-13T04:20:05;4.38;;;1.00;;
74941;SDS011;63506;49.346;8.798;2023-03-13T04:22:37;2.47;;;1.30;;
74941;SDS011;63506;49.346;8.798;2023-03-13T04:25:09;2.25;;;0.65;;
74941;SDS011;63506;49.346;8.798;2023-03-13T04:27:37;2.00;;;1.30;;
74941;SDS011;63506;49.346;8.798;2023-03-13T04:30:19;6.75;;;1.30;;
74941;SDS011;63506;49.346;8.798;2023-03-13T04:33:03;2.43;;;1.47;;
74941;SDS011;63506;49.346;8.798;2023-03-13T04:35:48;1.92;;;0.93;;
74941;SDS011;63506;49.346;8.798;2023-03-13T04:38:38;2.40;;;0.93;;
74941;SDS011;63506;49.346;8.798;2023-03-13T04:41:15;4.95;;;1.00;;
74941;SDS011;63506;49.346;8.798;2023-03-13T04:43:50;4.38;;;1.00;;
74941;SDS011;63506;49.346;8.798;2023-03-13T04:46:37;2.33;;;0.90;;
74941;SDS011;63506;49.346;8.798;2023-03-13T04:49:12;4.50;;;1.50;;
74941;SDS011;63506;49.346;8.798;2023-03-13T04:52:02;2.53;;;0.80;;
74941;SDS011;63506;49.346;8.798;2023-03-13T04:54:49;1.95;;;1.30;;
74941;SDS011;63506;49.346;8.798;2023-03-13T04:57:37;3.40;;;1.60;;
74941;SDS011;63506;49.346;8.798;2023-03-13T05:00:21;2.42;;;2.20;;
74941;SDS011;63506;49.346;8.798;2023-03-13T05:03:06;1.20;;;0.88;;
74941;SDS011;63506;49.346;8.798;2023-03-13T05:06:06;2.33;;;1.05;;
74941;SDS011;63506;49.346;8.798;2023-03-13T05:08:54;1.13;;;0.93;;
74941;SDS011;63506;49.346;8.798;2023-03-13T05:11:59;0.93;;;0.60;;
74941;SDS011;63506;49.346;8.798;2023-03-13T05:14:52;1.02;;;0.82;;
74941;SDS011;63506;49.346;8.798;2023-03-13T05:17:38;2.47;;;2.05;;
74941;SDS011;63506;49.346;8.798;2023-03-13T05:20:29;1.27;;;0.73;;
74941;SDS011;63506;49.346;8.798;2023-03-13T05:23:16;4.32;;;1.30;;
74941;SDS011;63506;49.346;8.798;2023-03-13T05:25:55;1.65;;;0.95;;
74941;SDS011;63506;49.346;8.798;2023-03-13T05:28:38;1.02;;;0.77;;
74941;SDS011;63506;49.346;8.798;2023-03-13T05:31:18;1.75;;;1.20;;
74941;SDS011;63506;49.346;8.798;2023-03-13T05:33:58;0.60;;;0.60;;
74941;SDS011;63506;49.346;8.798;2023-03-13T05:36:41;1.30;;;0.80;;
74941;SDS011;63506;49.346;8.798;2023-03-13T05:39:35;0.70;;;0.70;;
74941;SDS011;63506;49.346;8.798;2023-03-13T05:42:13;1.77;;;0.70;;
74941;SDS011;63506;49.346;8.798;2023-03-13T05:44:59;1.02;;;0.82;;
74941;SDS011;63506;49.346;8.798;2023-03-13T05:47:45;3.00;;;1.38;;
74941;SDS011;63506;49.346;8.798;2023-03-13T05:50:36;1.88;;;1.10;;
74941;SDS011;63506;49.346;8.798;2023-03-13T05:53:22;2.20;;;1.35;;
74941;SDS011;63506;49.346;8.798;2023-03-13T05:56:04;3.05;;;1.15;;
74941;SDS011;63506;49.346;8.798;2023-03-13T05:58:43;2.75;;;1.40;;
74941;SDS011;63506;49.346;8.798;2023-03-13T06:01:48;2.13;;;0.90;;
74941;SDS011;63506;49.346;8.798;2023-03-13T06:04:25;2.88;;;1.20;;
74941;SDS011;63506;49.346;8.798;2023-03-13T06:06:55;3.20;;;1.23;;
74941;SDS011;63506;49.346;8.798;2023-03-13T06:09:23;2.42;;;1.77;;
74941;SDS011;63506;49.346;8.798;2023-03-13T06:11:55;4.32;;;1.05;;
74941;SDS011;63506;49.346;8.798;2023-03-13T06:14:22;2.13;;;0.75;;
74941;SDS011;63506;49.346;8.798;2023-03-13T06:17:21;1.85;;;0.77;;
74941;SDS011;63506;49.346;8.798;2023-03-13T06:19:54;1.15;;;0.85;;
74941;SDS011;63506;49.346;8.798;2023-03-13T06:22:24;1.08;;;0.60;;
74941;SDS011;63506;49.346;8.798;2023-03-13T06:24:56;1.35;;;1.00;;
74941;SDS011;63506;49.346;8.798;2023-03-13T06:27:27;2.33;;;1.20;;
74941;SDS011;63506;49.346;8.798;2023-03-13T06:29:54;1.67;;;0.80;;
74941;SDS011;63506;49.346;8.798;2023-03-13T06:32:21;3.20;;;1.10;;
74941;SDS011;63506;49.346;8.798;2023-03-13T06:34:48;1.50;;;0.70;;
74941;SDS011;63506;49.346;8.798;2023-03-13T06:37:17;3.22;;;1.35;;
74941;SDS011;63506;49.346;8.798;2023-03-13T06:39:50;2.08;;;0.88;;
74941;SDS011;63506;49.346;8.798;2023-03-13T06:42:20;0.47;;;0.47;;
74941;SDS011;63506;49.346;8.798;2023-03-13T06:44:53;1.00;;;0.75;;
74941;SDS011;63506;49.346;8.798;2023-03-13T06:47:20;2.03;;;0.60;;
74941;SDS011;63506;49.346;8.798;2023-03-13T06:49:50;0.77;;;0.70;;
74941;SDS011;63506;49.346;8.798;2023-03-13T06:52:17;4.55;;;0.60;;
74941;SDS011;63506;49.346;8.798;2023-03-13T06:54:46;0.68;;;0.60;;
74941;SDS011;63506;49.346;8.798;2023-03-13T06:57:13;1.15;;;0.70;;
74941;SDS011;63506;49.346;8.798;2023-03-13T06:59:43;2.80;;;0.80;;
74941;SDS011;63506;49.346;8.798;2023-03-13T07:02:14;0.90;;;0.70;;
74941;SDS011;63506;49.346;8.798;2023-03-13T07:04:41;1.50;;;0.60;;
74941;SDS011;63506;49.346;8.798;2023-03-13T07:07:08;0.75;;;0.52;;
74941;SDS011;63506;49.346;8.798;2023-03-13T07:09:38;1.83;;;0.80;;
74941;SDS011;63506;49.346;8.798;2023-03-13T07:12:05;1.17;;;0.50;;
74941;SDS011;63506;49.346;8.798;2023-03-13T07:14:33;0.95;;;0.70;;
74941;SDS011;63506;49.346;8.798;2023-03-13T07:17:02;2.88;;;0.80;;
74941;SDS011;63506;49.346;8.798;2023-03-13T07:19:31;0.82;;;0.60;;
74941;SDS011;63506;49.346;8.798;2023-03-13T07:21:58;0.50;;;0.47;;
74941;SDS011;63506;49.346;8.798;2023-03-13T07:24:25;1.35;;;0.60;;
74941;SDS011;63506;49.346;8.798;2023-03-13T07:26:53;2.08;;;0.70;;
74941;SDS011;63506;49.346;8.798;2023-03-13T07:29:22;2.28;;;0.55;;
74941;SDS011;63506;49.346;8.798;2023-03-13T07:31:49;1.38;;;0.85;;
74941;SDS011;63506;49.346;8.798;2023-03-13T07:34:17;0.47;;;0.32;;
74941;SDS011;63506;49.346;8.798;2023-03-13T07:36:48;0.68;;;0.50;;
74941;SDS011;63506;49.346;8.798;2023-03-13T07:39:15;1.25;;;0.80;;
74941;SDS011;63506;49.346;8.798;2023-03-13T07:41:42;1.02;;;0.70;;
74941;SDS011;63506;49.346;8.798;2023-03-13T07:44:14;2.40;;;0.85;;
74941;SDS011;63506;49.346;8.798;2023-03-13T07:46:42;0.95;;;0.90;;
74941;SDS011;63506;49.346;8.798;2023-03-13T07:49:11;2.33;;;0.60;;
74941;SDS011;63506;49.346;8.798;2023-03-13T07:51:38;2.60;;;0.60;;
74941;SDS011;63506;49.346;8.798;2023-03-13T07:54:07;0.85;;;0.52;;
74941;SDS011;63506;49.346;8.798;2023-03-13T07:56:36;1.75;;;0.45;;
74941;SDS011;63506;49.346;8.798;2023-03-13T07:59:06;0.93;;;0.60;;
74941;SDS011;63506;49.346;8.798;2023-03-13T08:01:33;1.05;;;0.75;;
74941;SDS011;63506;49.346;8.798;2023-03-13T08:04:01;4.07;;;1.10;;
74941;SDS011;63506;49.346;8.798;2023-03-13T08:06:29;8.70;;;7.22;;
74941;SDS011;63506;49.346;8.798;2023-03-13T08:08:57;1.77;;;1.50;;
74941;SDS011;63506;49.346;8.798;2023-03-13T08:11:28;1.85;;;0.52;;
74941;SDS011;63506;49.346;8.798;2023-03-13T08:13:58;1.45;;;0.90;;
74941;SDS011;63506;49.346;8.798;2023-03-13T08:16:26;1.50;;;0.73;;
74941;SDS011;63506;49.346;8.798;2023-03-13T08:18:54;1.35;;;0.50;;
74941;SDS011;63506;49.346;8.798;2023-03-13T08:21:25;2.00;;;0.82;;
74941;SDS011;63506;49.346;8.798;2023-03-13T08:23:56;1.48;;;0.70;;
74941;SDS011;63506;49.346;8.798;2023-03-13T08:26:25;1.40;;;0.60;;
74941;SDS011;63506;49.346;8.798;2023-03-13T08:28:57;1.33;;;1.20;;
74941;SDS011;63506;49.346;8.798;2023-03-13T08:31:32;1.13;;;0.70;;
74941;SDS011;63506;49.346;8.798;2023-03-13T08:34:00;1.98;;;0.63;;
74941;SDS011;63506;49.346;8.798;2023-03-13T08:36:55;0.55;;;0.50;;
74941;SDS011;63506;49.346;8.798;2023-03-13T08:39:25;1.40;;;0.75;;
74941;SDS011;63506;49.346;8.798;2023-03-13T08:41:52;1.95;;;1.17;;
74941;SDS011;63506;49.346;8.798;2023-03-13T08:44:23;1.00;;;0.90;;
74941;SDS011;63506;49.346;8.798;2023-03-13T08:46:53;1.65;;;0.82;;
74941;SDS011;63506;49.346;8.798;2023-03-13T08:49:20;0.95;;;0.57;;
74941;SDS011;63506;49.346;8.798;2023-03-13T08:51:49;0.90;;;0.60;;
74941;SDS011;63506;49.346;8.798;2023-03-13T08:54:19;2.05;;;0.47;;
74941;SDS011;63506;49.346;8.798;2023-03-13T08:56:46;0.70;;;0.70;;
74941;SDS011;63506;49.346;8.798;2023-03-13T08:59:13;2.47;;;0.90;;
74941;SDS011;63506;49.346;8.798;2023-03-13T09:01:45;1.20;;;0.63;;
74941;SDS011;63506;49.346;8.798;2023-03-13T09:04:14;3.08;;;0.88;;
74941;SDS011;63506;49.346;8.798;2023-03-13T09:06:41;0.90;;;0.55;;
74941;SDS011;63506;49.346;8.798;2023-03-13T09:09:09;3.22;;;1.02;;
74941;SDS011;63506;49.346;8.798;2023-03-13T09:11:37;1.73;;;1.25;;
74941;SDS011;63506;49.346;8.798;2023-03-13T09:14:05;1.75;;;1.00;;
74941;SDS011;63506;49.346;8.798;2023-03-13T09:16:33;0.52;;;0.43;;
74941;SDS011;63506;49.346;8.798;2023-03-13T09:19:02;0.85;;;0.60;;
74941;SDS011;63506;49.346;8.798;2023-03-13T09:21:30;1.77;;;0.80;;
74941;SDS011;63506;49.346;8.798;2023-03-13T09:23:58;1.50;;;1.00;;
74941;SDS011;63506;49.346;8.798;2023-03-13T09:26:26;0.93;;;0.77;;
74941;SDS011;63506;49.346;8.798;2023-03-13T09:28:54;0.80;;;0.65;;
74941;SDS011;63506;49.346;8.798;2023-03-13T09:31:26;1.08;;;0.93;;
74941;SDS011;63506;49.346;8.798;2023-03-13T09:33:59;1.10;;;0.73;;
74941;SDS011;63506;49.346;8.798;2023-03-13T09:36:30;1.20;;;0.90;;
74941;SDS011;63506;49.346;8.798;2023-03-13T09:38:58;2.42;;;0.70;;
74941;SDS011;63506;49.346;8.798;2023-03-13T09:41:31;2.47;;;0.98;;
74941;SDS011;63506;49.346;8.798;2023-03-13T09:44:07;3.05;;;0.82;;
74941;SDS011;63506;49.346;8.798;2023-03-13T09:46:42;1.52;;;1.02;;
74941;SDS011;63506;49.346;8.798;2023-03-13T09:49:17;1.63;;;0.80;;
74941;SDS011;63506;49.346;8.798;2023-03-13T09:51:59;2.30;;;0.73;;
74941;SDS011;63506;49.346;8.798;2023-03-13T09:54:32;3.22;;;0.70;;
74941;SDS011;63506;49.346;8.798;2023-03-13T09:57:04;1.42;;;0.77;;
74941;SDS011;63506;49.346;8.798;2023-03-13T09:59:35;2.55;;;0.80;;
74941;SDS011;63506;49.346;8.798;2023-03-13T10:02:14;1.35;;;0.93;;
74941;SDS011;63506;49.346;8.798;2023-03-13T10:04:49;0.80;;;0.77;;
74941;SDS011;63506;49.346;8.798;2023-03-13T10:07:22;3.03;;;1.10;;
74941;SDS011;63506;49.346;8.798;2023-03-13T10:09:49;1.75;;;1.65;;
74941;SDS011;63506;49.346;8.798;2023-03-13T10:12:18;1.88;;;1.23;;
74941;SDS011;63506;49.346;8.798;2023-03-13T10:14:54;1.45;;;1.17;;
74941;SDS011;63506;49.346;8.798;2023-03-13T10:17:31;4.13;;;0.90;;
74941;SDS011;63506;49.346;8.798;2023-03-13T10:20:00;1.20;;;1.10;;
74941;SDS011;63506;49.346;8.798;2023-03-13T10:22:35;3.10;;;1.50;;
74941;SDS011;63506;49.346;8.798;2023-03-13T10:25:10;5.20;;;2.30;;
74941;SDS011;63506;49.346;8.798;2023-03-13T10:27:52;2.42;;;1.90;;
74941;SDS011;63506;49.346;8.798;2023-03-13T10:30:21;3.20;;;1.92;;
74941;SDS011;63506;49.346;8.798;2023-03-13T10:32:52;2.35;;;1.33;;
74941;SDS011;63506;49.346;8.798;2023-03-13T10:35:21;1.77;;;1.17;;
74941;SDS011;63506;49.346;8.798;2023-03-13T10:37:58;1.42;;;0.95;;
74941;SDS011;63506;49.346;8.798;2023-03-13T10:40:37;2.05;;;1.20;;
74941;SDS011;63506;49.346;8.798;2023-03-13T10:43:11;1.70;;;1.10;;
74941;SDS011;63506;49.346;8.798;2023-03-13T10:45:39;1.05;;;0.80;;
74941;SDS011;63506;49.346;8.798;2023-03-13T10:48:10;2.10;;;0.93;;
74941;SDS011;63506;49.346;8.798;2023-03-13T10:50:40;1.02;;;0.88;;
74941;SDS011;63506;49.346;8.798;2023-03-13T10:55:51;1.50;;;1.38;;
74941;SDS011;63506;49.346;8.798;2023-03-13T10:58:45;2.50;;;1.20;;
74941;SDS011;63506;49.346;8.798;2023-03-13T11:01:17;2.30;;;1.40;;
74941;SDS011;63506;49.346;8.798;2023-03-13T11:03:45;3.85;;;1.10;;
74941;SDS011;63506;49.346;8.798;2023-03-13T11:06:22;1.17;;;0.70;;
74941;SDS011;63506;49.346;8.798;2023-03-13T11:08:59;1.40;;;1.02;;
74941;SDS011;63506;49.346;8.798;2023-03-13T11:11:42;1.45;;;1.08;;
74941;SDS011;63506;49.346;8.798;2023-03-13T11:14:13;2.35;;;1.33;;
74941;SDS011;63506;49.346;8.798;2023-03-13T11:16:45;1.40;;;1.20;;
74941;SDS011;63506;49.346;8.798;2023-03-13T11:22:12;2.92;;;1.25;;
74941;SDS011;63506;49.346;8.798;2023-03-13T11:24:52;1.23;;;0.98;;
74941;SDS011;63506;49.346;8.798;2023-03-13T11:27:29;1.13;;;0.90;;
74941;SDS011;63506;49.346;8.798;2023-03-13T11:30:07;1.73;;;1.23;;
74941;SDS011;63506;49.346;8.798;2023-03-13T11:32:46;2.13;;;1.10;;
74941;SDS011;63506;49.346;8.798;2023-03-13T11:35:21;2.67;;;2.00;;
74941;SDS011;63506;49.346;8.798;2023-03-13T11:38:00;2.88;;;1.20;;
74941;SDS011;63506;49.346;8.798;2023-03-13T11:40:38;1.92;;;0.80;;
74941;SDS011;63506;49.346;8.798;2023-03-13T11:43:16;2.80;;;1.27;;
74941;SDS011;63506;49.346;8.798;2023-03-13T11:46:10;1.67;;;1.05;;
74941;SDS011;63506;49.346;8.798;2023-03-13T11:49:16;5.07;;;1.30;;
74941;SDS011;63506;49.346;8.798;2023-03-13T11:52:37;3.65;;;1.02;;
74941;SDS011;63506;49.346;8.798;2023-03-13T11:57:41;2.55;;;1.25;;
74941;SDS011;63506;49.346;8.798;2023-03-13T12:00:15;2.67;;;1.10;;
74941;SDS011;63506;49.346;8.798;2023-03-13T12:02:48;1.60;;;1.20;;
74941;SDS011;63506;49.346;8.798;2023-03-13T12:05:18;2.97;;;1.83;;
74941;SDS011;63506;49.346;8.798;2023-03-13T12:07:50;1.85;;;1.00;;
74941;SDS011;63506;49.346;8.798;2023-03-13T12:10:21;1.88;;;1.25;;
74941;SDS011;63506;49.346;8.798;2023-03-13T12:12:55;4.90;;;1.93;;
74941;SDS011;63506;49.346;8.798;2023-03-13T12:15:27;3.08;;;1.67;;
74941;SDS011;63506;49.346;8.798;2023-03-13T12:20:32;3.75;;;1.70;;
74941;SDS011;63506;49.346;8.798;2023-03-13T12:23:03;1.93;;;1.00;;
74941;SDS011;63506;49.346;8.798;2023-03-13T12:25:43;1.33;;;0.98;;
74941;SDS011;63506;49.346;8.798;2023-03-13T12:28:20;1.70;;;1.40;;
74941;SDS011;63506;49.346;8.798;2023-03-13T12:30:52;1.63;;;1.15;;
74941;SDS011;63506;49.346;8.798;2023-03-13T12:33:25;2.25;;;1.40;;
74941;SDS011;63506;49.346;8.798;2023-03-13T12:36:00;2.35;;;1.80;;
74941;SDS011;63506;49.346;8.798;2023-03-13T12:38:31;2.83;;;1.83;;
74941;SDS011;63506;49.346;8.798;2023-03-13T12:41:03;2.25;;;1.60;;
74941;SDS011;63506;49.346;8.798;2023-03-13T12:43:38;1.88;;;1.40;;
74941;SDS011;63506;49.346;8.798;2023-03-13T12:46:12;3.60;;;1.60;;
74941;SDS011;63506;49.346;8.798;2023-03-13T12:48:57;3.67;;;1.40;;
74941;SDS011;63506;49.346;8.798;2023-03-13T12:52:05;6.05;;;1.65;;
74941;SDS011;63506;49.346;8.798;2023-03-13T12:54:54;1.92;;;1.48;;
74941;SDS011;63506;49.346;8.798;2023-03-13T12:57:42;1.95;;;1.70;;
74941;SDS011;63506;49.346;8.798;2023-03-13T13:00:27;4.10;;;1.25;;
74941;SDS011;63506;49.346;8.798;2023-03-13T13:03:00;2.03;;;1.52;;
74941;SDS011;63506;49.346;8.798;2023-03-13T13:05:32;1.63;;;1.20;;
74941;SDS011;63506;49.346;8.798;2023-03-13T13:07:59;1.48;;;1.27;;
74941;SDS011;63506;49.346;8.798;2023-03-13T13:10:26;2.78;;;1.30;;
74941;SDS011;63506;49.346;8.798;2023-03-13T13:15:46;2.58;;;1.63;;
74941;SDS011;63506;49.346;8.798;2023-03-13T13:18:15;4.15;;;1.20;;
74941;SDS011;63506;49.346;8.798;2023-03-13T13:23:54;1.67;;;1.38;;
74941;SDS011;63506;49.346;8.798;2023-03-13T13:27:08;2.28;;;1.40;;
74941;SDS011;63506;49.346;8.798;2023-03-13T13:29:57;2.30;;;1.20;;
74941;SDS011;63506;49.346;8.798;2023-03-13T13:32:36;2.30;;;1.25;;
74941;SDS011;63506;49.346;8.798;2023-03-13T13:35:20;1.67;;;1.58;;
74941;SDS011;63506;49.346;8.798;2023-03-13T13:41:02;2.20;;;1.30;;
74941;SDS011;63506;49.346;8.798;2023-03-13T13:43:32;1.83;;;1.30;;
74941;SDS011;63506;49.346;8.798;2023-03-13T13:46:01;1.95;;;1.50;;
74941;SDS011;63506;49.346;8.798;2023-03-13T13:48:32;8.93;;;2.10;;
74941;SDS011;63506;49.346;8.798;2023-03-13T13:53:56;1.73;;;1.60;;
74941;SDS011;63506;49.346;8.798;2023-03-13T13:56:41;1.70;;;1.20;;
74941;SDS011;63506;49.346;8.798;2023-03-13T13:59:20;3.97;;;1.60;;
74941;SDS011;63506;49.346;8.798;2023-03-13T14:02:11;1.88;;;1.30;;
74941;SDS011;63506;49.346;8.798;2023-03-13T14:04:48;1.50;;;1.15;;
74941;SDS011;63506;49.346;8.798;2023-03-13T14:07:27;1.73;;;1.23;;
74941;SDS011;63506;49.346;8.798;2023-03-13T14:10:02;7.43;;;2.33;;
74941;SDS011;63506;49.346;8.798;2023-03-13T14:12:33;1.88;;;1.10;;
74941;SDS011;63506;49.346;8.798;2023-03-13T14:15:07;1.45;;;1.00;;
74941;SDS011;63506;49.346;8.798;2023-03-13T14:17:38;1.13;;;0.60;;
74941;SDS011;63506;49.346;8.798;2023-03-13T14:20:18;1.60;;;1.50;;
74941;SDS011;63506;49.346;8.798;2023-03-13T14:22:53;2.08;;;1.15;;
74941;SDS011;63506;49.346;8.798;2023-03-13T14:25:21;2.25;;;1.20;;
74941;SDS011;63506;49.346;8.798;2023-03-13T14:27:50;1.92;;;0.80;;
74941;SDS011;63506;49.346;8.798;2023-03-13T14:30:19;2.10;;;1.02;;
74941;SDS011;63506;49.346;8.798;2023-03-13T14:32:49;2.08;;;1.30;;
74941;SDS011;63506;49.346;8.798;2023-03-13T14:35:19;5.45;;;1.70;;
74941;SDS011;63506;49.346;8.798;2023-03-13T14:37:52;2.38;;;1.08;;
74941;SDS011;63506;49.346;8.798;2023-03-13T14:40:28;1.77;;;1.20;;
74941;SDS011;63506;49.346;8.798;2023-03-13T14:42:57;3.33;;;1.25;;
74941;SDS011;63506;49.346;8.798;2023-03-13T14:45:28;1.30;;;1.20;;
74941;SDS011;63506;49.346;8.798;2023-03-13T14:47:59;1.80;;;1.33;;
74941;SDS011;63506;49.346;8.798;2023-03-13T14:50:29;1.52;;;1.25;;
74941;SDS011;63506;49.346;8.798;2023-03-13T14:52:59;1.00;;;0.90;;
74941;SDS011;63506;49.346;8.798;2023-03-13T14:55:31;1.70;;;1.20;;
74941;SDS011;63506;49.346;8.798;2023-03-13T14:58:00;1.20;;;1.10;;
74941;SDS011;63506;49.346;8.798;2023-03-13T15:00:35;2.08;;;1.40;;
74941;SDS011;63506;49.346;8.798;2023-03-13T15:03:26;1.73;;;1.10;;
74941;SDS011;63506;49.346;8.798;2023-03-13T15:06:14;1.60;;;0.88;;
74941;SDS011;63506;49.346;8.798;2023-03-13T15:08:44;2.00;;;1.08;;
74941;SDS011;63506;49.346;8.798;2023-03-13T15:11:18;2.67;;;1.23;;
74941;SDS011;63506;49.346;8.798;2023-03-13T15:13:48;1.08;;;0.93;;
74941;SDS011;63506;49.346;8.798;2023-03-13T15:16:18;2.28;;;1.45;;
74941;SDS011;63506;49.346;8.798;2023-03-13T15:18:47;4.88;;;1.77;;
74941;SDS011;63506;49.346;8.798;2023-03-13T15:21:23;1.83;;;1.73;;
74941;SDS011;63506;49.346;8.798;2023-03-13T15:23:55;1.58;;;1.13;;
74941;SDS011;63506;49.346;8.798;2023-03-13T15:26:28;0.80;;;0.75;;
74941;SDS011;63506;49.346;8.798;2023-03-13T15:28:58;1.65;;;1.00;;
74941;SDS011;63506;49.346;8.798;2023-03-13T15:31:30;1.20;;;1.08;;
74941;SDS011;63506;49.346;8.798;2023-03-13T15:34:00;2.55;;;0.90;;
74941;SDS011;63506;49.346;8.798;2023-03-13T15:36:29;1.35;;;0.90;;
74941;SDS011;63506;49.346;8.798;2023-03-13T15:38:59;1.50;;;1.00;;
74941;SDS011;63506;49.346;8.798;2023-03-13T15:41:29;2.78;;;0.80;;
74941;SDS011;63506;49.346;8.798;2023-03-13T15:43:56;3.55;;;0.88;;
74941;SDS011;63506;49.346;8.798;2023-03-13T15:46:29;1.52;;;0.90;;
74941;SDS011;63506;49.346;8.798;2023-03-13T15:48:59;2.72;;;1.00;;